Richmond's Hourly Summary for Wednesday, March 15, 2017
Hour Temp
(f)
RH
(%)
Solar Rad.
(MJ/m2)
Rainfall
(in)
Wind
(mph)
3/15/2017 12:00 AM 53 83 0 0 0.36
3/15/2017 1:00 AM 53 85 0 0 1.38
3/15/2017 2:00 AM 51 86 0 0 0.9
3/15/2017 3:00 AM 51 85 0 0 2.21
3/15/2017 4:00 AM 49 89 0 0 1.82
3/15/2017 5:00 AM 48 95 0 0 0.53
3/15/2017 6:00 AM 49 89 0 0 0.59
3/15/2017 7:00 AM 47 89 0 0 0.04
3/15/2017 8:00 AM 47 94 0.02 0 1.03
3/15/2017 9:00 AM 51 82 0.3 0 4.49
3/15/2017 10:00 AM 57 78 1.33 0 8.57
3/15/2017 11:00 AM 61 68 2.06 0 8.44
3/15/2017 12:00 PM 65 60 2.54 0 9.41
3/15/2017 1:00 PM 67 59 2.8 0 10.4
3/15/2017 2:00 PM 68 56 2.98 0 9.65
3/15/2017 3:00 PM 69 55 2.15 0 9.75
3/15/2017 4:00 PM 68 55 1.69 0 10.05
3/15/2017 5:00 PM 68 59 1.54 0 11.15
3/15/2017 6:00 PM 67 60 1.53 0 11.69
3/15/2017 7:00 PM 64 63 0.7 0 12.39
3/15/2017 8:00 PM 61 70 0.08 0 10.03
3/15/2017 9:00 PM 59 78 0 0 9.57
3/15/2017 10:00 PM 57 83 0 0 7.49
3/15/2017 11:00 PM 56 86 0 0 5.76
Data Summary 57 75 19.72 0.00 6.15